Terminal Aerodrome Forecast
Issued by NWS Duluth, MN

Home | Current Version | Previous Version | Text Only | Print | Product List | Glossary On
Versions: 1 2 3 4 5 6 7 8 9 10 11 12
545
FTUS43 KDLH 251733
TAFINL
TAF
KINL 251733Z 2518/2618 28009G13KT P6SM FEW050
     FM252100 26005KT P6SM SKC
     FM260400 VRB03KT P6SM VCSH BKN080
     FM261100 VRB02KT P6SM SCT100=

USA.gov is the U.S. government's official web portal to all federal, state and local government web resources and services.